createdAt,value
2022-11-18T00:03:31.310Z,8.30
2022-11-18T00:23:59.863Z,8.40
2022-11-18T03:52:07.564Z,8.00
2022-11-18T04:13:14.108Z,7.80
2022-11-18T04:18:18.569Z,7.70
2022-11-18T04:23:12.110Z,7.70
2022-11-18T04:28:29.965Z,7.80
2022-11-18T04:33:40.369Z,7.80
2022-11-18T04:38:46.876Z,7.60
2022-11-18T04:43:54.504Z,7.50
2022-11-18T04:49:04.255Z,7.50
2022-11-18T05:14:39.207Z,7.30
2022-11-18T05:19:55.817Z,7.30
2022-11-18T05:36:41.509Z,7.30
2022-11-18T05:57:07.671Z,7.20
2022-11-18T06:07:16.778Z,7.20
2022-11-18T06:12:17.234Z,7.20
2022-11-18T06:17:21.186Z,7.10
2022-11-18T06:22:15.038Z,7.20
2022-11-18T06:27:12.592Z,7.10
2022-11-18T06:32:13.328Z,7.20
2022-11-18T06:37:15.407Z,7.10
2022-11-18T06:42:08.858Z,7.10
2022-11-18T06:47:05.411Z,7.10
2022-11-18T06:51:59.119Z,7.20
2022-11-18T06:56:54.312Z,7.20
2022-11-18T07:01:47.723Z,7.20
2022-11-18T07:06:42.492Z,7.20
2022-11-18T07:11:38.275Z,7.20
2022-11-18T07:16:31.621Z,7.20
2022-11-18T07:21:27.961Z,7.30
2022-11-18T07:26:24.018Z,7.40
2022-11-18T07:31:20.148Z,7.30
2022-11-18T07:36:16.071Z,7.20
2022-11-18T07:41:12.644Z,7.10
2022-11-18T07:46:17.088Z,7.00
2022-11-18T07:51:11.594Z,6.90
2022-11-18T07:56:06.346Z,6.90
2022-11-18T08:01:00.156Z,6.90
2022-11-18T08:05:55.509Z,6.90
2022-11-18T08:10:48.946Z,7.00
2022-11-18T08:15:42.856Z,7.00
2022-11-18T08:20:36.457Z,7.10
2022-11-18T08:25:31.106Z,7.20
2022-11-18T08:30:24.525Z,7.40
2022-11-18T08:35:18.068Z,7.40
2022-11-18T08:40:12.379Z,7.50
2022-11-18T08:45:09.513Z,7.70
2022-11-18T08:50:03.880Z,7.80
2022-11-18T08:54:57.194Z,8.00
2022-11-18T08:59:50.577Z,8.10
2022-11-18T09:04:45.506Z,8.10
2022-11-18T09:09:40.854Z,8.10
2022-11-18T09:19:48.971Z,8.00
2022-11-18T09:24:43.591Z,8.00
2022-11-18T09:29:37.021Z,8.00
2022-11-18T09:34:30.885Z,8.00
2022-11-18T09:46:09.743Z,8.00
2022-11-18T09:51:03.355Z,8.00
2022-11-18T09:55:57.351Z,8.00
2022-11-18T10:00:50.906Z,8.00
2022-11-18T10:05:54.284Z,8.10
2022-11-18T10:11:04.803Z,8.20
2022-11-18T10:16:15.761Z,8.30
2022-11-18T10:21:24.522Z,8.30
2022-11-18T10:26:36.030Z,8.40
2022-11-18T10:31:29.964Z,8.40
2022-11-18T10:36:32.413Z,8.50
2022-11-18T10:41:25.758Z,8.50
2022-11-18T10:46:29.402Z,8.50
2022-11-18T10:51:25.932Z,8.50
2022-11-18T10:56:20.676Z,8.60
2022-11-18T11:01:24.317Z,8.60
2022-11-18T11:06:38.054Z,8.50
2022-11-18T11:11:36.359Z,8.50
2022-11-18T11:16:32.629Z,8.50
2022-11-18T11:21:29.083Z,8.40
2022-11-18T11:32:06.712Z,8.30
2022-11-18T11:37:14.054Z,8.50
2022-11-18T11:42:23.021Z,8.50
2022-11-18T11:47:49.459Z,8.60
2022-11-18T11:52:57.656Z,8.50
2022-11-18T11:58:19.480Z,8.50
2022-11-18T12:03:50.312Z,8.40
2022-11-18T12:09:07.825Z,8.40
2022-11-18T12:14:11.835Z,8.40
2022-11-18T12:19:13.687Z,8.40
2022-11-18T12:24:40.864Z,8.40
2022-11-18T12:30:00.015Z,8.40
2022-11-18T12:35:03.779Z,8.30
2022-11-18T12:40:01.569Z,8.40
2022-11-18T12:44:56.238Z,8.60
2022-11-18T12:50:14.740Z,8.50
2022-11-18T12:55:19.132Z,8.50
2022-11-18T13:00:32.815Z,8.60
2022-11-18T13:05:29.195Z,8.70
2022-11-18T13:10:28.784Z,8.70
2022-11-18T13:15:41.937Z,8.60
2022-11-18T13:20:38.338Z,8.70
2022-11-18T13:25:31.617Z,8.70
2022-11-18T13:30:29.808Z,8.70
2022-11-18T13:35:27.363Z,8.70
2022-11-18T13:40:25.347Z,8.60
2022-11-18T13:45:19.422Z,8.60
2022-11-18T13:50:26.489Z,8.50
2022-11-18T13:55:27.301Z,8.50
2022-11-18T14:00:34.102Z,8.50
2022-11-18T14:05:29.633Z,8.60
2022-11-18T14:10:36.702Z,8.70
2022-11-18T14:15:43.589Z,8.60
2022-11-18T14:20:38.960Z,8.70
2022-11-18T14:25:35.929Z,8.50
2022-11-18T14:30:36.908Z,8.40
2022-11-18T14:35:33.551Z,8.30
2022-11-18T14:40:29.685Z,8.30
2022-11-18T14:45:24.219Z,8.20
2022-11-18T14:50:18.428Z,8.10
2022-11-18T14:55:12.834Z,8.10
2022-11-18T15:00:13.909Z,8.00
2022-11-18T15:05:08.264Z,8.00
2022-11-18T15:10:01.953Z,8.00
2022-11-18T15:14:55.236Z,7.80
2022-11-18T15:19:49.984Z,7.80
2022-11-18T15:24:43.287Z,7.80
2022-11-18T15:29:36.537Z,7.70
2022-11-18T15:34:30.340Z,7.70
2022-11-18T15:39:25.010Z,7.80
2022-11-18T15:44:19.031Z,7.80
2022-11-18T15:49:17.624Z,7.70
2022-11-18T15:54:12.631Z,7.70
2022-11-18T15:59:16.759Z,7.50
2022-11-18T16:04:12.692Z,7.50
2022-11-18T16:09:07.930Z,7.60
2022-11-18T16:14:03.161Z,7.60
2022-11-18T16:18:58.793Z,7.60
2022-11-18T16:24:18.724Z,7.60
2022-11-18T16:29:15.731Z,7.50
2022-11-18T16:34:29.926Z,7.60
2022-11-18T16:39:26.300Z,7.60
2022-11-18T16:44:19.830Z,7.60
2022-11-18T16:49:17.452Z,7.60
2022-11-18T16:54:19.106Z,7.60
2022-11-18T16:59:15.709Z,7.70
2022-11-18T17:04:18.976Z,7.70
2022-11-18T17:09:17.237Z,7.60
2022-11-18T17:14:21.054Z,7.60
2022-11-18T17:19:21.835Z,7.60
2022-11-18T17:24:24.012Z,7.50
2022-11-18T17:29:17.969Z,7.60
2022-11-18T17:34:13.071Z,7.60
2022-11-18T17:39:08.414Z,7.50
2022-11-18T17:44:03.834Z,7.50
2022-11-18T17:48:57.770Z,7.50
2022-11-18T17:53:51.751Z,7.60
2022-11-18T17:58:47.232Z,7.50
2022-11-18T18:03:42.293Z,7.50
2022-11-18T18:08:36.154Z,7.40
2022-11-18T18:13:46.932Z,7.40
2022-11-18T18:18:41.847Z,7.50
2022-11-18T18:23:36.640Z,7.50
2022-11-18T18:28:30.200Z,7.60
2022-11-18T18:33:23.776Z,7.50
2022-11-18T18:38:28.633Z,7.60
2022-11-18T18:43:22.693Z,7.60
2022-11-18T18:49:11.155Z,7.50
2022-11-18T18:54:43.818Z,7.50
2022-11-18T19:00:25.185Z,7.60
2022-11-18T19:12:32.197Z,7.50
2022-11-18T19:18:25.960Z,7.50
2022-11-18T19:24:13.914Z,7.50
2022-11-18T19:30:23.333Z,7.60
2022-11-18T19:35:55.679Z,7.40
2022-11-18T19:41:00.355Z,7.40
2022-11-18T19:46:05.815Z,7.40
2022-11-18T19:51:15.489Z,7.40
2022-11-18T19:56:15.455Z,7.40
2022-11-18T20:01:36.075Z,7.50
2022-11-18T20:06:45.826Z,7.50
2022-11-18T20:11:39.692Z,7.30
2022-11-18T20:16:47.530Z,7.30
2022-11-18T20:21:43.336Z,7.20
2022-11-18T20:26:39.539Z,7.30
2022-11-18T20:31:34.705Z,7.30
2022-11-18T20:36:31.145Z,7.30
2022-11-18T20:41:26.709Z,7.30
2022-11-18T20:46:22.666Z,7.20
2022-11-18T20:51:20.040Z,7.20
2022-11-18T20:56:15.888Z,7.20
2022-11-18T21:01:11.511Z,7.20
2022-11-18T21:06:21.133Z,7.10
2022-11-18T21:11:40.203Z,7.10
2022-11-18T21:16:36.360Z,7.10
2022-11-18T21:21:48.640Z,7.20
2022-11-18T21:26:46.595Z,7.10
2022-11-18T21:31:40.523Z,7.00
2022-11-18T21:36:38.937Z,6.90
2022-11-18T21:41:36.932Z,7.00
2022-11-18T21:46:31.438Z,7.10
2022-11-18T21:51:26.952Z,7.10
2022-11-18T21:56:25.098Z,6.70
2022-11-18T22:01:21.118Z,6.60
2022-11-18T22:06:15.237Z,6.60
2022-11-18T22:11:11.748Z,6.60
2022-11-18T22:16:09.608Z,6.60
2022-11-18T22:21:05.443Z,6.50
2022-11-18T22:26:02.738Z,6.50
2022-11-18T22:31:03.426Z,6.50
2022-11-18T22:36:02.543Z,6.40
2022-11-18T22:41:01.455Z,6.40
2022-11-18T22:46:02.106Z,6.40
2022-11-18T22:51:01.604Z,6.40
2022-11-18T22:56:03.675Z,6.30
2022-11-18T23:01:01.081Z,6.30
2022-11-18T23:05:54.467Z,6.40
2022-11-18T23:10:51.239Z,6.20
2022-11-18T23:15:44.625Z,6.00
2022-11-18T23:20:37.940Z,6.10
2022-11-18T23:25:31.218Z,6.00
2022-11-18T23:30:25.953Z,6.00
2022-11-18T23:35:19.167Z,5.80
2022-11-18T23:40:13.999Z,5.90
2022-11-18T23:45:08.693Z,5.90
2022-11-18T23:50:03.307Z,6.00
2022-11-18T23:54:57.574Z,6.00
2022-11-18T23:59:50.947Z,6.00
